Syn Atlas — IBVA — position and weather

sailwx.info

Track history (hours):
 
Tides and Currents Weather Stations Pressure Air Temp Water Temp Dewpoint Dewpoint Depression Visibility Wind Speed Wind Dir Waves Ship Positions

Syn Atlas

Last reported at 2018-Jan-01 23:37 UTC. Time now 2018-Jun-25 14:17 UTC.
Position N 34°47' E 025°58'.
Warning: this ship's position is months out of date.

Length 106 m; draft 5.7 m.

Type: Ship. MMSI: 247265000.

Date/timePositionNaut miles runAvg speedWind from/ knotsBaromVisibWave heightAir tempDewpointWater temp
2018-Jan-01 23:37N 34°47' E 025°58'112.1
2018-Jan-01 23:30N 34°47' E 025°57'1212.3
2018-Jan-01 22:31N 34°47' E 025°42'112.4
2018-Jan-01 22:25N 34°47' E 025°40'1412.4
2018-Jan-01 21:16N 34°47' E 025°23'412.3
2018-Jan-01 20:58N 34°47' E 025°19'612.6
2018-Jan-01 20:30N 34°47' E 025°12'9012.4
2018-Jan-01 13:18N 35°12' E 023°27'412.9
2018-Jan-01 13:00N 35°14' E 023°23'1612.3
2018-Jan-01 11:43N 35°24' E 023°07'912.3
2018-Jan-01 11:01N 35°29' E 022°59'011.4
2018-Jan-01 11:00N 35°29' E 022°59'  
2017-Dec-26 22:08N 37°52' E 016°03'213.4
2017-Dec-26 22:00N 37°51' E 016°02'713.2
2017-Dec-26 21:30N 37°46' E 015°56'713.5
2017-Dec-26 21:00N 37°41' E 015°50'713.6
2017-Dec-26 20:30N 37°36' E 015°45'813.3
2017-Dec-26 19:55N 37°30' E 015°38'713.1
2017-Dec-26 19:25N 37°25' E 015°32'9 0.3
2017-Dec-25 14:28N 37°19' E 015°24'613.0
2017-Dec-25 13:59N 37°23' E 015°30'713.3
2017-Dec-25 13:27N 37°29' E 015°36'613.1
2017-Dec-25 12:59N 37°33' E 015°41'812.5
2017-Dec-25 12:23N 37°38' E 015°48'512.3
2017-Dec-25 12:01N 37°42' E 015°52'612.1
2017-Dec-25 11:29N 37°46' E 015°58'8812.2
2017-Dec-25 04:18N 38°52' E 017°12'713.7
2017-Dec-25 03:47N 38°57' E 017°18'2013.4
2017-Dec-25 02:16N 39°15' E 017°29'313.2
2017-Dec-25 02:00N 39°18' E 017°31'713.0
2017-Dec-25 01:30N 39°23' E 017°36'613.1
2017-Dec-25 01:00N 39°27' E 017°44'713.3
2017-Dec-25 00:29N 39°30' E 017°51'1113.4
2017-Dec-24 23:38N 39°35' E 018°05'213.3
2017-Dec-24 23:30N 39°36' E 018°07'813.2
2017-Dec-24 22:55N 39°40' E 018°16'713.4
2017-Dec-24 22:25N 39°43' E 018°23'29812.7
2017-Dec-23 22:52N 43°29' E 014°04'7012.9
2017-Dec-23 17:25N 44°16' E 012°51'613.1
2017-Dec-23 16:59N 44°21' E 012°48'612.7
2017-Dec-23 16:30N 44°25' E 012°41'713.2
2017-Dec-23 16:00N 44°28' E 012°33'612.8
2017-Dec-23 15:30N 44°30' E 012°25'611.2
2017-Dec-23 15:00N 44°29' E 012°17'  
Track history (hours):
 
Tides and Currents Weather Stations Pressure Air Temp Water Temp Dewpoint Dewpoint Depression Visibility Wind Speed Wind Dir Waves Ship Positions

Syn Atlas

Last reported at 2018-Jan-01 23:37 UTC. Time now 2018-Jun-25 14:17 UTC.
Position N 34°47' E 025°58'.
Warning: this ship's position is months out of date.

Length 106 m; draft 5.7 m.

Type: Ship. MMSI: 247265000.

Date/timePositionNaut miles runAvg speedWind from/ knotsBaromVisibWave heightAir tempDewpointWater temp
2018-Jan-01 23:37N 34°47' E 025°58'112.1
2018-Jan-01 23:30N 34°47' E 025°57'1212.3
2018-Jan-01 22:31N 34°47' E 025°42'112.4
2018-Jan-01 22:25N 34°47' E 025°40'1412.4
2018-Jan-01 21:16N 34°47' E 025°23'412.3
2018-Jan-01 20:58N 34°47' E 025°19'612.6
2018-Jan-01 20:30N 34°47' E 025°12'9012.4
2018-Jan-01 13:18N 35°12' E 023°27'412.9
2018-Jan-01 13:00N 35°14' E 023°23'1612.3
2018-Jan-01 11:43N 35°24' E 023°07'912.3
2018-Jan-01 11:01N 35°29' E 022°59'011.4
2018-Jan-01 11:00N 35°29' E 022°59'  
2017-Dec-26 22:08N 37°52' E 016°03'213.4
2017-Dec-26 22:00N 37°51' E 016°02'713.2
2017-Dec-26 21:30N 37°46' E 015°56'713.5
2017-Dec-26 21:00N 37°41' E 015°50'713.6
2017-Dec-26 20:30N 37°36' E 015°45'813.3
2017-Dec-26 19:55N 37°30' E 015°38'713.1
2017-Dec-26 19:25N 37°25' E 015°32'9 0.3
2017-Dec-25 14:28N 37°19' E 015°24'613.0
2017-Dec-25 13:59N 37°23' E 015°30'713.3
2017-Dec-25 13:27N 37°29' E 015°36'613.1
2017-Dec-25 12:59N 37°33' E 015°41'812.5
2017-Dec-25 12:23N 37°38' E 015°48'512.3
2017-Dec-25 12:01N 37°42' E 015°52'612.1
2017-Dec-25 11:29N 37°46' E 015°58'8812.2
2017-Dec-25 04:18N 38°52' E 017°12'713.7
2017-Dec-25 03:47N 38°57' E 017°18'2013.4
2017-Dec-25 02:16N 39°15' E 017°29'313.2
2017-Dec-25 02:00N 39°18' E 017°31'713.0
2017-Dec-25 01:30N 39°23' E 017°36'613.1
2017-Dec-25 01:00N 39°27' E 017°44'713.3
2017-Dec-25 00:29N 39°30' E 017°51'1113.4
2017-Dec-24 23:38N 39°35' E 018°05'213.3
2017-Dec-24 23:30N 39°36' E 018°07'813.2
2017-Dec-24 22:55N 39°40' E 018°16'713.4
2017-Dec-24 22:25N 39°43' E 018°23'29812.7
2017-Dec-23 22:52N 43°29' E 014°04'7012.9
2017-Dec-23 17:25N 44°16' E 012°51'613.1
2017-Dec-23 16:59N 44°21' E 012°48'612.7
2017-Dec-23 16:30N 44°25' E 012°41'713.2
2017-Dec-23 16:00N 44°28' E 012°33'612.8
2017-Dec-23 15:30N 44°30' E 012°25'611.2
2017-Dec-23 15:00N 44°29' E 012°17'  

Dump ship's entire track history